Terminal Aerodrome Forecast
Issued by NWS Charleston, WV

Current Version | Previous Version | Graphics & Text | Print | Product List | Glossary On
Versions: 1 2 3 4 5 6 7 8 9 10 11 12 13 14 15 16 17 18 19 20 21 22 23
000
FTUS41 KRLX 160300 AAA
TAFEKN
TAF AMD
KEKN 160302Z 1603/1624 00000KT 3SM BR SCT250
      TEMPO 1603/1604 1SM BR
     FM160400 15004KT P6SM SCT250
     FM161400 17005KT 5SM -SHRA BR OVC035
     FM161800 24008G16KT P6SM VCSH OVC025=

USA.gov is the U.S. government's official web portal to all federal, state and local government web resources and services.